Time;durP1;ratioP1;P1;durP2;ratioP2;P2;SDS_P1;SDS_P2;PMS_P1;PMS_P2;Temp;Humidity;BMP_temperature;BMP_pressure;BME280_temperature;BME280_humidity;BME280_pressure;Samples;Min_cycle;Max_cycle;Signal;HPM_P1;HPM_P2
2022/07/10 00:00:26;;;;;;;4.88;0.70;;;14.70;99.90;;;;;;4883384;29;20045;-65
2022/07/10 00:02:52;;;;;;;3.58;0.60;;;14.70;99.90;;;;;;4883383;29;20059;-65
2022/07/10 00:05:18;;;;;;;3.60;0.50;;;14.70;99.90;;;;;;4883388;29;20080;-65
2022/07/10 00:07:45;;;;;;;6.18;0.50;;;14.70;99.90;;;;;;4883287;29;20045;-65
2022/07/10 00:10:10;;;;;;;4.65;0.45;;;14.70;99.90;;;;;;4883323;29;20053;-65
2022/07/10 00:12:37;;;;;;;5.15;0.50;;;14.70;99.90;;;;;;4883216;29;20056;-65
2022/07/10 00:15:07;;;;;;;4.78;0.40;;;14.70;99.90;;;;;;4883242;29;20048;-65
2022/07/10 00:17:33;;;;;;;3.22;0.63;;;14.80;99.90;;;;;;4883127;29;20052;-65
2022/07/10 00:19:59;;;;;;;3.30;0.50;;;14.70;99.90;;;;;;4883157;29;20064;-65
2022/07/10 00:22:25;;;;;;;4.70;0.60;;;14.70;99.90;;;;;;4882182;29;20049;-65
2022/07/10 00:24:51;;;;;;;3.75;0.43;;;14.80;99.90;;;;;;4883654;29;20049;-65
2022/07/10 00:27:18;;;;;;;1.75;0.50;;;14.80;99.90;;;;;;4883230;29;20053;-64
2022/07/10 00:29:44;;;;;;;2.22;0.40;;;14.80;99.90;;;;;;4883043;29;20131;-65
2022/07/10 00:32:10;;;;;;;3.33;0.40;;;14.80;99.90;;;;;;4897447;29;20097;-65
2022/07/10 00:34:35;;;;;;;3.03;0.40;;;14.80;99.90;;;;;;4883465;29;20049;-65
2022/07/10 00:37:03;;;;;;;2.83;0.40;;;14.80;99.90;;;;;;4882845;29;20132;-64
2022/07/10 00:39:28;;;;;;;3.95;0.50;;;14.80;99.90;;;;;;4882857;29;20045;-64
2022/07/10 00:41:54;;;;;;;2.05;0.40;;;14.70;99.90;;;;;;4882785;29;20041;-65
2022/07/10 00:44:20;;;;;;;3.53;0.50;;;14.70;99.90;;;;;;4881577;29;20048;-65
2022/07/10 00:46:46;;;;;;;3.15;0.50;;;14.70;99.90;;;;;;4882676;29;20045;-65
2022/07/10 00:49:11;;;;;;;3.00;0.50;;;14.70;99.90;;;;;;4882283;29;20045;-65
2022/07/10 00:51:38;;;;;;;2.40;0.50;;;14.70;99.90;;;;;;4882583;29;20041;-65
2022/07/10 00:54:06;;;;;;;3.70;0.70;;;14.70;99.90;;;;;;4881446;29;20036;-65
2022/07/10 00:56:32;;;;;;;5.05;0.93;;;14.70;99.90;;;;;;4882295;29;20068;-65
2022/07/10 00:58:58;;;;;;;3.47;0.50;;;14.60;99.90;;;;;;4882367;29;20041;-65
2022/07/10 01:01:24;;;;;;;2.72;0.50;;;14.60;99.90;;;;;;4882482;29;20049;-65
2022/07/10 01:03:50;;;;;;;3.63;0.50;;;14.60;99.90;;;;;;4882433;29;20045;-65
2022/07/10 01:06:16;;;;;;;2.38;0.50;;;14.60;99.90;;;;;;4881700;29;20056;-65
2022/07/10 01:08:44;;;;;;;4.97;0.60;;;14.60;99.90;;;;;;4897277;29;20077;-65
2022/07/10 01:11:10;;;;;;;4.80;0.95;;;14.60;99.90;;;;;;4881563;29;20055;-65
2022/07/10 01:13:37;;;;;;;3.92;0.60;;;14.60;99.90;;;;;;4881111;29;20041;-65
2022/07/10 01:16:03;;;;;;;7.68;0.70;;;14.60;99.90;;;;;;4882188;29;20136;-65
2022/07/10 01:18:29;;;;;;;6.43;0.52;;;14.60;99.90;;;;;;4882577;29;20077;-65
2022/07/10 01:20:56;;;;;;;3.03;0.47;;;14.60;99.90;;;;;;4882116;29;20083;-65
2022/07/10 01:23:22;;;;;;;2.92;0.43;;;14.60;99.90;;;;;;4882264;29;20478;-65
2022/07/10 01:25:48;;;;;;;3.75;0.40;;;14.50;99.90;;;;;;4881970;29;20070;-65
2022/07/10 01:28:15;;;;;;;5.43;0.70;;;14.50;99.90;;;;;;4881996;29;20096;-65
2022/07/10 01:30:41;;;;;;;6.78;0.60;;;14.50;99.90;;;;;;4881854;29;20208;-65
2022/07/10 01:33:07;;;;;;;5.28;0.60;;;14.50;99.90;;;;;;4881697;29;20144;-65
2022/07/10 01:35:33;;;;;;;3.53;0.50;;;14.40;99.90;;;;;;4882294;29;20045;-65
2022/07/10 01:37:58;;;;;;;4.00;0.47;;;14.40;99.90;;;;;;4881737;29;20049;-65
2022/07/10 01:40:24;;;;;;;5.72;0.50;;;14.40;99.90;;;;;;4881706;29;20128;-65
2022/07/10 01:42:50;;;;;;;5.22;0.63;;;14.40;99.90;;;;;;4880606;29;20049;-65
2022/07/10 01:45:17;;;;;;;2.92;0.40;;;14.40;99.90;;;;;;4881464;29;20048;-64
2022/07/10 01:47:43;;;;;;;4.80;0.90;;;14.40;99.90;;;;;;4881607;29;20086;-65
2022/07/10 01:50:09;;;;;;;4.07;0.50;;;14.40;99.90;;;;;;4881622;29;20045;-65
2022/07/10 01:52:35;;;;;;;2.05;0.50;;;14.40;99.90;;;;;;4882274;29;20052;-65
2022/07/10 01:55:01;;;;;;;3.80;0.65;;;14.40;99.90;;;;;;4881549;29;20389;-65
2022/07/10 01:57:27;;;;;;;3.88;0.60;;;14.40;99.90;;;;;;4881113;29;20389;-64
2022/07/10 01:59:53;;;;;;;4.38;0.50;;;14.40;99.90;;;;;;4880927;29;20053;-65
2022/07/10 02:02:18;;;;;;;6.38;0.80;;;14.40;99.90;;;;;;4881362;29;20045;-64
2022/07/10 02:04:44;;;;;;;4.38;0.50;;;14.40;99.90;;;;;;4881159;29;20355;-65
2022/07/10 02:07:15;;;;;;;1.00;0.40;;;14.40;99.90;;;;;;4881313;29;20052;-65
2022/07/10 02:09:42;;;;;;;4.03;0.77;;;14.40;99.90;;;;;;4881271;29;20431;-66
2022/07/10 02:12:09;;;;;;;3.30;0.93;;;14.40;99.90;;;;;;4881790;29;20473;-65
2022/07/10 02:14:35;;;;;;;3.65;0.30;;;14.40;99.90;;;;;;4881177;29;20116;-65
2022/07/10 02:17:01;;;;;;;46.15;5.45;;;14.40;99.90;;;;;;4881121;29;20401;-65
2022/07/10 02:19:27;;;;;;;55.30;8.68;;;14.40;99.90;;;;;;4880829;29;20044;-64
2022/07/10 02:21:53;;;;;;;3.55;0.43;;;14.30;99.90;;;;;;4880947;29;20128;-65
2022/07/10 02:24:18;;;;;;;2.10;0.40;;;14.30;99.90;;;;;;4880996;29;20103;-65
2022/07/10 02:26:44;;;;;;;2.00;0.43;;;14.30;99.90;;;;;;4881263;29;20081;-64
2022/07/10 02:29:10;;;;;;;4.95;0.85;;;14.30;99.90;;;;;;4881112;29;20040;-65
2022/07/10 02:31:40;;;;;;;2.58;0.68;;;14.30;99.90;;;;;;4880873;29;20509;-65
2022/07/10 02:34:15;;;;;;;7.47;0.65;;;14.30;99.90;;;;;;4881427;29;20053;-65
2022/07/10 02:36:41;;;;;;;4.55;0.60;;;14.30;99.90;;;;;;4881327;29;20048;-64
2022/07/10 02:39:08;;;;;;;1.90;0.50;;;14.30;99.90;;;;;;4880674;29;20041;-64
2022/07/10 02:41:34;;;;;;;4.18;1.00;;;14.30;99.90;;;;;;4880668;29;20045;-64
2022/07/10 02:44:00;;;;;;;2.67;0.40;;;14.30;99.90;;;;;;4880708;29;20041;-65
2022/07/10 02:46:26;;;;;;;2.08;0.50;;;14.30;99.90;;;;;;4880626;29;20045;-64
2022/07/10 02:48:52;;;;;;;6.25;0.57;;;14.30;99.90;;;;;;4881249;29;20127;-65
2022/07/10 02:51:18;;;;;;;3.28;0.52;;;14.30;99.90;;;;;;4880764;29;20049;-64
2022/07/10 02:53:43;;;;;;;3.95;0.50;;;14.30;99.90;;;;;;4880429;29;20441;-64
2022/07/10 02:56:09;;;;;;;4.40;0.77;;;14.30;99.90;;;;;;4879770;29;20092;-65
2022/07/10 02:58:35;;;;;;;2.75;0.40;;;14.30;99.90;;;;;;4879934;29;20049;-65
2022/07/10 03:01:00;;;;;;;5.50;0.73;;;14.30;99.90;;;;;;4880410;29;20134;-65
2022/07/10 03:03:26;;;;;;;2.80;0.60;;;14.20;99.90;;;;;;4880352;29;20453;-64
2022/07/10 03:05:52;;;;;;;6.03;0.88;;;14.20;99.90;;;;;;4880818;29;20108;-65
2022/07/10 03:08:18;;;;;;;2.50;1.05;;;14.20;99.90;;;;;;4879347;29;20053;-64
2022/07/10 03:10:43;;;;;;;12.23;0.73;;;14.20;99.90;;;;;;4879265;29;20557;-65
2022/07/10 03:13:09;;;;;;;1.00;0.32;;;14.20;99.90;;;;;;4880724;29;20040;-64
2022/07/10 03:15:35;;;;;;;2.28;0.40;;;14.10;99.90;;;;;;4880454;29;20045;-64
2022/07/10 03:18:01;;;;;;;5.70;0.60;;;14.10;99.90;;;;;;4880022;29;20048;-64
2022/07/10 03:20:27;;;;;;;4.68;0.65;;;14.00;99.90;;;;;;4880125;29;20092;-64
2022/07/10 03:22:53;;;;;;;1.48;0.50;;;14.00;99.90;;;;;;4880102;29;20045;-64
2022/07/10 03:25:19;;;;;;;1.77;0.43;;;14.00;99.90;;;;;;4880066;29;20052;-64
2022/07/10 03:27:44;;;;;;;2.35;0.40;;;14.00;99.90;;;;;;4879949;29;20036;-64
2022/07/10 03:30:10;;;;;;;2.55;0.40;;;13.90;99.90;;;;;;4879721;29;20056;-65
2022/07/10 03:32:36;;;;;;;2.83;0.47;;;13.90;99.90;;;;;;4880338;29;20041;-64
2022/07/10 03:35:02;;;;;;;3.95;1.05;;;13.90;99.90;;;;;;4880236;29;20489;-64
2022/07/10 03:37:28;;;;;;;3.25;0.50;;;13.90;99.90;;;;;;4880608;29;20084;-64
2022/07/10 03:39:54;;;;;;;6.80;0.70;;;13.90;99.90;;;;;;4878938;29;20484;-65
2022/07/10 03:42:19;;;;;;;4.78;0.70;;;13.90;99.90;;;;;;4879875;29;20077;-64
2022/07/10 03:44:45;;;;;;;4.55;0.65;;;13.90;99.90;;;;;;4879778;29;20542;-64
2022/07/10 03:47:11;;;;;;;2.45;0.40;;;13.90;99.90;;;;;;4879825;29;20048;-64
2022/07/10 03:49:41;;;;;;;2.60;0.60;;;13.90;99.90;;;;;;4879824;29;20097;-65
2022/07/10 03:52:07;;;;;;;3.17;0.88;;;13.80;99.90;;;;;;4879757;29;20448;-66
2022/07/10 03:54:33;;;;;;;2.85;0.50;;;13.80;99.90;;;;;;4879782;29;20041;-65
2022/07/10 03:59:43;;;;;;;3.83;0.50;;;13.80;99.90;;;;;;4879688;29;20049;-65
2022/07/10 04:02:09;;;;;;;11.85;0.70;;;13.90;99.90;;;;;;4879695;29;20045;-64
2022/07/10 04:04:35;;;;;;;2.92;0.65;;;13.90;99.90;;;;;;4879718;29;20393;-64
2022/07/10 04:07:01;;;;;;;2.70;0.40;;;13.90;99.90;;;;;;4879680;29;20053;-64
2022/07/10 04:09:27;;;;;;;5.07;0.55;;;13.90;99.90;;;;;;4879646;29;20056;-64
2022/07/10 04:11:52;;;;;;;4.07;0.63;;;13.90;99.90;;;;;;4880403;29;20045;-64
2022/07/10 04:14:18;;;;;;;7.25;6.70;;;13.80;99.90;;;;;;4880135;29;20411;-64
2022/07/10 04:16:44;;;;;;;30.95;29.67;;;13.90;99.90;;;;;;4879590;29;20128;-64
2022/07/10 04:19:10;;;;;;;5.05;0.55;;;13.90;99.90;;;;;;4878316;29;20049;-64
2022/07/10 04:21:36;;;;;;;4.93;0.80;;;13.90;99.90;;;;;;4878551;29;20037;-64
2022/07/10 04:24:03;;;;;;;2.05;0.73;;;13.90;99.90;;;;;;4879518;29;20489;-64
2022/07/10 04:26:28;;;;;;;0.98;0.30;;;13.90;99.90;;;;;;4879566;29;20044;-64
2022/07/10 04:28:54;;;;;;;0.85;0.55;;;13.90;99.90;;;;;;4880010;29;20358;-64
2022/07/10 04:31:20;;;;;;;2.90;0.30;;;13.90;99.90;;;;;;4878673;29;20088;-64
2022/07/10 04:33:45;;;;;;;1.02;0.40;;;13.90;99.90;;;;;;4879378;29;20124;-65
2022/07/10 04:36:11;;;;;;;1.98;0.30;;;14.00;99.90;;;;;;4879651;29;20041;-64
2022/07/10 04:38:37;;;;;;;0.77;0.30;;;14.00;99.90;;;;;;4879359;29;20492;-64
2022/07/10 04:41:03;;;;;;;1.80;0.55;;;14.10;99.90;;;;;;4879324;29;20087;-64
2022/07/10 04:43:30;;;;;;;0.47;0.30;;;14.20;99.90;;;;;;4879182;29;20097;-64
2022/07/10 04:45:56;;;;;;;1.42;0.40;;;14.30;99.90;;;;;;4883501;29;20040;-65
2022/07/10 04:48:21;;;;;;;5.97;0.90;;;14.30;99.90;;;;;;4881802;29;20508;-64
2022/07/10 04:50:47;;;;;;;5.32;0.50;;;14.40;99.90;;;;;;4883706;29;20464;-64
2022/07/10 04:53:13;;;;;;;5.88;0.50;;;14.50;99.90;;;;;;4882866;29;20382;-64
2022/07/10 04:55:39;;;;;;;4.05;0.40;;;14.60;99.90;;;;;;4882421;29;20052;-65
2022/07/10 04:58:04;;;;;;;4.43;0.60;;;14.70;99.90;;;;;;4882425;29;20056;-65
2022/07/10 05:00:30;;;;;;;2.38;0.60;;;14.80;99.90;;;;;;4882467;29;20041;-64
2022/07/10 05:02:56;;;;;;;2.50;0.52;;;14.90;99.90;;;;;;4882252;29;20343;-64
2022/07/10 05:05:21;;;;;;;2.95;0.32;;;14.90;99.90;;;;;;4882384;29;20385;-64
2022/07/10 05:07:47;;;;;;;2.78;0.50;;;15.00;99.90;;;;;;4882329;29;20383;-65
2022/07/10 05:10:13;;;;;;;1.63;0.40;;;15.00;99.90;;;;;;4882307;29;20056;-64
2022/07/10 05:12:38;;;;;;;3.13;0.60;;;15.10;99.90;;;;;;4866122;29;20052;-64
2022/07/10 05:15:05;;;;;;;3.20;0.40;;;15.10;99.90;;;;;;4882263;29;20041;-64
2022/07/10 05:17:31;;;;;;;4.93;0.55;;;15.10;99.90;;;;;;4882116;29;20173;-64
2022/07/10 05:19:57;;;;;;;6.07;0.50;;;15.20;99.90;;;;;;4882153;29;20157;-64
2022/07/10 05:22:24;;;;;;;4.78;0.50;;;15.20;99.90;;;;;;4882897;29;20127;-64
2022/07/10 05:24:50;;;;;;;6.25;0.50;;;15.20;99.90;;;;;;4882637;29;20049;-64
2022/07/10 05:27:18;;;;;;;8.55;0.73;;;15.20;99.90;;;;;;4882073;29;20059;-64
2022/07/10 05:29:44;;;;;;;2.88;1.10;;;15.20;99.90;;;;;;4881962;29;20060;-65
2022/07/10 05:32:11;;;;;;;1.95;0.55;;;15.20;99.90;;;;;;4882478;29;20049;-64
2022/07/10 05:34:36;;;;;;;7.95;0.57;;;15.20;99.90;;;;;;4881887;29;20059;-64
2022/07/10 05:37:02;;;;;;;2.72;0.40;;;15.20;99.90;;;;;;4880927;29;20179;-64
2022/07/10 05:39:28;;;;;;;0.82;0.30;;;15.20;99.90;;;;;;4882264;29;20207;-64
2022/07/10 05:41:55;;;;;;;1.80;0.35;;;15.20;99.90;;;;;;4881794;29;20056;-65
2022/07/10 05:44:21;;;;;;;2.30;0.88;;;15.20;99.90;;;;;;4881753;29;20109;-65
2022/07/10 05:46:47;;;;;;;1.20;0.55;;;15.20;99.90;;;;;;4896107;29;20059;-64
2022/07/10 05:49:13;;;;;;;6.55;0.70;;;15.20;99.90;;;;;;4881595;29;20040;-64
2022/07/10 05:51:38;;;;;;;1.10;0.38;;;15.20;99.90;;;;;;4881624;29;20041;-64
2022/07/10 05:54:04;;;;;;;2.55;1.00;;;15.20;99.90;;;;;;4882073;29;20040;-64
2022/07/10 05:56:30;;;;;;;0.82;0.52;;;15.20;99.90;;;;;;4880395;29;20061;-64
2022/07/10 05:58:56;;;;;;;0.60;0.30;;;15.20;99.90;;;;;;4881720;29;20080;-64
2022/07/10 06:01:25;;;;;;;4.28;0.40;;;15.20;99.90;;;;;;4882131;29;20049;-64
2022/07/10 06:03:52;;;;;;;3.00;0.50;;;15.20;99.90;;;;;;4881820;29;20445;-64
2022/07/10 06:06:17;;;;;;;4.45;0.70;;;15.20;99.90;;;;;;4881303;29;20541;-65
2022/07/10 06:08:44;;;;;;;4.20;0.60;;;15.30;99.90;;;;;;4882060;29;20086;-64
2022/07/10 06:11:10;;;;;;;2.65;0.93;;;15.30;99.90;;;;;;4881307;29;20053;-64
2022/07/10 06:13:37;;;;;;;2.78;0.40;;;15.30;99.90;;;;;;4881200;29;20052;-64
2022/07/10 06:16:04;;;;;;;3.88;0.60;;;15.30;99.90;;;;;;4881152;29;20056;-64
2022/07/10 06:18:30;;;;;;;82.75;26.05;;;15.30;99.90;;;;;;4881568;29;20158;-64
2022/07/10 06:20:56;;;;;;;7.63;1.00;;;15.40;99.90;;;;;;4881050;29;20084;-64
2022/07/10 06:23:22;;;;;;;4.22;0.50;;;15.30;99.90;;;;;;4881334;29;20082;-64
2022/07/10 06:25:49;;;;;;;4.13;0.50;;;15.30;99.90;;;;;;4864597;29;20105;-64
2022/07/10 06:28:15;;;;;;;5.05;0.50;;;15.30;99.90;;;;;;4880985;29;20080;-64
2022/07/10 06:30:41;;;;;;;5.40;0.60;;;15.40;99.90;;;;;;4879879;29;20391;-64
2022/07/10 06:33:07;;;;;;;3.03;0.60;;;15.40;99.90;;;;;;4880189;29;20049;-65
2022/07/10 06:35:32;;;;;;;2.92;0.50;;;15.40;99.90;;;;;;4880127;29;20040;-65
2022/07/10 06:37:58;;;;;;;3.85;0.50;;;15.40;99.90;;;;;;4880060;29;20387;-64
2022/07/10 06:40:25;;;;;;;5.18;0.77;;;15.40;99.90;;;;;;4879586;29;20092;-64
2022/07/10 06:42:50;;;;;;;3.30;0.50;;;15.40;99.90;;;;;;4879749;29;20464;-64
2022/07/10 06:45:16;;;;;;;2.35;0.40;;;15.40;99.90;;;;;;4879525;29;20084;-64
2022/07/10 06:47:58;;;;;;;3.25;0.50;;;15.40;99.90;;;;;;4880492;29;20045;-65
2022/07/10 06:50:26;;;;;;;4.50;0.40;;;15.50;99.90;;;;;;4881370;29;20076;-64
2022/07/10 06:52:52;;;;;;;3.53;0.50;;;15.50;99.90;;;;;;4880481;29;20059;-64
2022/07/10 06:55:19;;;;;;;4.20;0.40;;;15.50;99.90;;;;;;4879515;29;20049;-64
2022/07/10 06:57:45;;;;;;;3.00;0.50;;;15.50;99.90;;;;;;4879193;29;20057;-65
2022/07/10 07:00:11;;;;;;;3.78;0.63;;;15.60;99.90;;;;;;4880827;29;20413;-64
2022/07/10 07:02:37;;;;;;;2.42;0.32;;;15.60;99.90;;;;;;4879140;29;20045;-65
2022/07/10 07:05:04;;;;;;;3.60;0.30;;;15.70;99.90;;;;;;4879468;29;20449;-65
2022/07/10 07:07:29;;;;;;;3.10;0.30;;;15.70;99.90;;;;;;4880924;29;20356;-65
2022/07/10 07:09:55;;;;;;;2.97;0.40;;;15.80;99.90;;;;;;4880252;29;20052;-64
2022/07/10 07:12:21;;;;;;;4.20;0.47;;;15.90;99.90;;;;;;4880227;29;20064;-65
2022/07/10 07:14:47;;;;;;;3.28;0.40;;;15.90;99.90;;;;;;4880190;29;20052;-64
2022/07/10 07:17:14;;;;;;;4.85;0.60;;;15.90;99.90;;;;;;4880083;29;20044;-65
2022/07/10 07:25:10;;;;;;;4.05;0.50;;;15.80;99.90;;;;;;4880935;29;20111;-64
2022/07/10 07:27:37;;;;;;;1.85;0.30;;;15.80;99.90;;;;;;4880129;29;20049;-65
2022/07/10 07:30:04;;;;;;;2.22;0.70;;;15.70;99.90;;;;;;4879701;29;20544;-64
2022/07/10 07:32:30;;;;;;;3.78;0.65;;;15.70;99.90;;;;;;4880064;29;20053;-64
2022/07/10 07:34:56;;;;;;;1.13;0.45;;;15.60;99.90;;;;;;4878805;29;20056;-64
2022/07/10 07:37:23;;;;;;;5.05;0.50;;;15.50;99.90;;;;;;4879891;29;20137;-65
2022/07/10 07:39:49;;;;;;;2.60;0.43;;;15.60;99.90;;;;;;4878815;29;20057;-65
2022/07/10 07:42:14;;;;;;;2.15;0.40;;;15.60;99.90;;;;;;4879233;29;20116;-64
2022/07/10 07:44:40;;;;;;;2.45;1.20;;;15.80;99.90;;;;;;4880401;29;20053;-64
2022/07/10 07:47:06;;;;;;;2.63;0.30;;;15.80;99.90;;;;;;4894812;29;20057;-64
2022/07/10 07:49:31;;;;;;;3.53;0.30;;;16.00;99.90;;;;;;4880170;29;20048;-65
2022/07/10 07:51:57;;;;;;;1.88;0.40;;;16.00;99.90;;;;;;4879875;29;20084;-65
2022/07/10 07:54:23;;;;;;;4.53;0.40;;;16.00;99.90;;;;;;4894912;29;20060;-65
2022/07/10 07:56:48;;;;;;;4.35;0.30;;;16.00;99.90;;;;;;4879817;29;20064;-65
2022/07/10 07:59:14;;;;;;;1.38;0.20;;;16.00;99.90;;;;;;4879321;29;20055;-66
2022/07/10 08:01:40;;;;;;;2.75;0.40;;;16.10;99.90;;;;;;4880568;29;20061;-66
2022/07/10 08:04:05;;;;;;;2.58;0.50;;;16.10;99.90;;;;;;4879563;29;20053;-68
2022/07/10 08:06:31;;;;;;;2.35;0.70;;;16.20;99.90;;;;;;4878982;29;20053;-67
2022/07/10 08:08:57;;;;;;;3.47;0.50;;;16.20;99.90;;;;;;4878273;29;20048;-66
2022/07/10 08:11:22;;;;;;;2.45;0.40;;;16.30;99.90;;;;;;4878209;29;20049;-66
2022/07/10 08:13:48;;;;;;;3.30;0.40;;;16.20;99.90;;;;;;4879471;29;20045;-66
2022/07/10 08:16:14;;;;;;;3.60;0.55;;;16.20;99.90;;;;;;4877984;29;20501;-66
2022/07/10 08:18:39;;;;;;;2.95;0.50;;;16.20;99.90;;;;;;4878355;29;20049;-68
2022/07/10 08:21:05;;;;;;;4.57;0.40;;;16.10;99.90;;;;;;4882816;29;20060;-67
2022/07/10 08:23:31;;;;;;;1.45;0.30;;;16.10;99.90;;;;;;4881578;29;20197;-66
2022/07/10 08:25:57;;;;;;;3.42;0.50;;;16.10;99.90;;;;;;4882345;29;20056;-66
2022/07/10 08:28:22;;;;;;;2.33;0.50;;;16.10;99.90;;;;;;4882214;29;20049;-66
2022/07/10 08:30:48;;;;;;;3.60;0.30;;;16.10;99.90;;;;;;4882724;29;20482;-66
2022/07/10 08:33:14;;;;;;;2.28;0.30;;;16.10;99.90;;;;;;4883072;29;20048;-66
2022/07/10 08:35:40;;;;;;;2.42;0.40;;;16.20;99.90;;;;;;4882489;29;20112;-67
2022/07/10 08:38:08;;;;;;;2.67;0.40;;;16.10;99.90;;;;;;4882440;29;20051;-66
2022/07/10 08:40:36;;;;;;;4.43;0.43;;;16.10;99.90;;;;;;4881197;29;20533;-67
2022/07/10 08:43:02;;;;;;;2.22;0.40;;;16.00;99.90;;;;;;4881686;29;20053;-69
2022/07/10 08:45:36;;;;;;;3.42;0.40;;;16.00;99.90;;;;;;4882369;29;20047;-67
2022/07/10 08:48:05;;;;;;;4.18;0.40;;;16.00;99.90;;;;;;4897320;29;20053;-66
2022/07/10 08:50:34;;;;;;;1.77;0.30;;;16.00;99.90;;;;;;4882329;29;20112;-67
2022/07/10 08:53:12;;;;;;;1.80;0.25;;;16.00;99.90;;;;;;4882768;29;20081;-66
2022/07/10 08:55:39;;;;;;;3.13;0.30;;;16.00;99.90;;;;;;4882825;29;20055;-66
2022/07/10 08:58:05;;;;;;;2.88;0.28;;;16.00;99.90;;;;;;4882528;29;20049;-66
2022/07/10 09:00:31;;;;;;;0.98;0.20;;;15.90;99.90;;;;;;4881077;29;20480;-66
2022/07/10 09:02:57;;;;;;;1.35;0.20;;;15.90;99.90;;;;;;4882081;29;20088;-65
2022/07/10 09:05:24;;;;;;;4.50;0.38;;;15.90;99.90;;;;;;4881991;29;20104;-66
2022/07/10 09:07:50;;;;;;;0.40;0.20;;;15.90;99.90;;;;;;4882226;29;20049;-66
2022/07/10 09:10:19;;;;;;;1.50;0.15;;;16.00;99.90;;;;;;4881253;29;20384;-67
2022/07/10 09:12:59;;;;;;;1.50;0.10;;;16.00;99.90;;;;;;4881189;29;20053;-66
2022/07/10 09:15:27;;;;;;;0.17;0.10;;;16.00;99.90;;;;;;4881947;29;20048;-66
2022/07/10 09:17:57;;;;;;;0.30;0.08;;;16.10;99.90;;;;;;4880525;29;20056;-66
2022/07/10 09:20:37;;;;;;;0.80;0.10;;;16.20;99.90;;;;;;4880773;29;20152;-66
2022/07/10 09:23:20;;;;;;;4.47;0.17;;;16.30;99.90;;;;;;4881299;29;20088;-66
2022/07/10 09:25:51;;;;;;;0.22;0.10;;;16.40;99.90;;;;;;4881013;29;20049;-66
2022/07/10 09:28:19;;;;;;;0.32;0.10;;;16.50;99.90;;;;;;4881988;29;20077;-65
2022/07/10 09:30:45;;;;;;;0.40;0.40;;;16.60;99.90;;;;;;4880572;29;20045;-66
2022/07/10 09:33:30;;;;;;;0.68;0.13;;;16.70;99.90;;;;;;4880712;29;20065;-66
2022/07/10 09:36:11;;;;;;;0.47;0.10;;;16.10;99.90;;;;;;4881549;29;20048;-66
2022/07/10 09:38:43;;;;;;;2.53;0.20;;;16.70;99.90;;;;;;4881401;29;20045;-66
2022/07/10 09:41:29;;;;;;;0.40;0.10;;;16.70;99.90;;;;;;4880576;29;20545;-65
2022/07/10 09:44:00;;;;;;;0.75;0.10;;;16.70;99.90;;;;;;4880542;29;20105;-66
2022/07/10 09:46:30;;;;;;;1.30;0.17;;;16.70;99.90;;;;;;4880925;29;20044;-66
2022/07/10 09:49:07;;;;;;;0.20;0.10;;;16.70;99.90;;;;;;4894979;29;20471;-65
2022/07/10 09:51:44;;;;;;;0.47;0.10;;;16.70;99.90;;;;;;4880445;29;20112;-65
2022/07/10 09:54:11;;;;;;;0.65;0.63;;;16.70;99.90;;;;;;4881225;29;20060;-65
2022/07/10 09:56:42;;;;;;;1.45;0.20;;;16.70;99.90;;;;;;4880440;29;20065;-66
2022/07/10 09:59:15;;;;;;;0.15;0.10;;;16.70;99.90;;;;;;4880508;29;20061;-66
2022/07/10 10:01:52;;;;;;;1.00;0.20;;;16.60;99.90;;;;;;4880593;29;20068;-66
2022/07/10 10:04:20;;;;;;;0.32;0.20;;;16.50;99.90;;;;;;4879501;29;20072;-65
2022/07/10 10:06:50;;;;;;;0.88;0.45;;;16.40;99.90;;;;;;4880295;29;20057;-66
2022/07/10 10:09:38;;;;;;;4.40;0.40;;;16.50;99.90;;;;;;4879321;29;20064;-65
2022/07/10 10:12:21;;;;;;;0.47;0.20;;;16.50;99.90;;;;;;4880711;29;20053;-65
2022/07/10 10:14:47;;;;;;;;;;;16.40;99.90;;;;;;4881069;29;20049;-67
2022/07/10 10:17:15;;;;;;;0.40;0.20;;;16.40;99.90;;;;;;4879884;29;19974;-65
2022/07/10 10:22:28;;;;;;;4.63;0.73;;;16.50;99.90;;;;;;4880833;29;20052;-66
2022/07/10 10:24:55;;;;;;;2.08;0.43;;;16.50;99.90;;;;;;4880065;29;20108;-66
2022/07/10 10:27:21;;;;;;;1.35;0.20;;;16.50;99.90;;;;;;4894319;29;20045;-65
2022/07/10 10:29:49;;;;;;;1.35;0.20;;;16.50;99.90;;;;;;4880471;29;20446;-64
2022/07/10 10:32:16;;;;;;;1.30;0.52;;;16.60;99.90;;;;;;4880421;29;20104;-65
2022/07/10 10:34:55;;;;;;;2.25;0.20;;;16.60;99.90;;;;;;4880739;29;20518;-65
2022/07/10 10:37:27;;;;;;;2.90;0.20;;;16.60;99.90;;;;;;4879713;29;20057;-66
2022/07/10 10:39:57;;;;;;;2.10;0.30;;;16.60;99.90;;;;;;4880064;29;20064;-65
2022/07/10 10:42:41;;;;;;;1.23;0.30;;;16.60;99.90;;;;;;4879840;29;20056;-65
2022/07/10 10:45:29;;;;;;;1.15;0.20;;;16.50;99.90;;;;;;4880073;29;20413;-66
2022/07/10 10:48:12;;;;;;;1.40;0.30;;;16.30;99.90;;;;;;4879742;29;20057;-66
2022/07/10 10:50:49;;;;;;;1.52;0.28;;;16.20;99.90;;;;;;4878758;29;20049;-67
2022/07/10 10:53:18;;;;;;;1.20;0.30;;;16.20;99.90;;;;;;4878870;29;20136;-68
2022/07/10 10:56:08;;;;;;;0.93;0.30;;;16.20;99.90;;;;;;4879464;29;20053;-67
2022/07/10 10:58:37;;;;;;;1.38;0.20;;;16.20;99.90;;;;;;4879830;29;20072;-66
2022/07/10 11:01:25;;;;;;;1.15;0.20;;;16.30;99.90;;;;;;4879458;29;20490;-68
2022/07/10 11:04:10;;;;;;;0.82;0.20;;;16.30;99.90;;;;;;4879877;29;20096;-67
2022/07/10 11:07:05;;;;;;;0.70;0.20;;;16.40;99.90;;;;;;4880313;29;20136;-66
2022/07/10 11:09:34;;;;;;;1.33;0.30;;;16.40;99.90;;;;;;4872309;29;20059;-66
2022/07/10 11:12:05;;;;;;;1.33;0.30;;;16.40;99.90;;;;;;4878806;29;20053;-67
2022/07/10 11:14:39;;;;;;;1.45;0.30;;;16.40;99.90;;;;;;4880212;29;20053;-68
2022/07/10 11:17:06;;;;;;;0.60;0.30;;;16.50;99.90;;;;;;4879924;29;20084;-66
2022/07/10 11:19:33;;;;;;;1.58;0.25;;;16.50;99.90;;;;;;4879937;29;20091;-66
2022/07/10 11:22:09;;;;;;;0.98;0.25;;;16.60;99.90;;;;;;4880045;29;20405;-66
2022/07/10 11:24:48;;;;;;;1.95;0.30;;;16.60;99.90;;;;;;4879953;29;20201;-66
2022/07/10 11:27:37;;;;;;;0.88;0.22;;;16.60;99.90;;;;;;4879236;29;20045;-66
2022/07/10 11:30:03;;;;;;;2.05;0.30;;;16.50;99.90;;;;;;4874613;29;20382;-66
2022/07/10 11:32:29;;;;;;;0.70;0.30;;;16.40;99.90;;;;;;4879936;29;20113;-66
2022/07/10 11:34:55;;;;;;;2.05;0.38;;;16.30;99.90;;;;;;4880150;29;20128;-67
2022/07/10 11:37:23;;;;;;;2.45;0.45;;;16.20;99.90;;;;;;4879790;29;20053;-67
2022/07/10 11:39:49;;;;;;;2.05;0.40;;;16.10;99.90;;;;;;4879082;29;20105;-66
2022/07/10 11:42:15;;;;;;;2.33;0.50;;;16.10;99.90;;;;;;4878677;29;20049;-66
2022/07/10 11:44:40;;;;;;;1.50;0.52;;;16.10;99.90;;;;;;4879533;29;20059;-66
2022/07/10 11:47:07;;;;;;;1.17;0.40;;;16.10;99.90;;;;;;4879167;29;20127;-66
2022/07/10 11:49:34;;;;;;;2.00;0.55;;;16.10;99.90;;;;;;4879713;29;20053;-66
2022/07/10 11:52:04;;;;;;;2.55;0.60;;;16.10;99.90;;;;;;4880040;29;20128;-65
2022/07/10 11:54:30;;;;;;;2.30;0.55;;;16.10;99.90;;;;;;4881467;29;20082;-66
2022/07/10 11:56:56;;;;;;;1.23;0.50;;;16.10;99.90;;;;;;4883546;29;20526;-66
2022/07/10 11:59:27;;;;;;;2.47;0.40;;;16.10;99.90;;;;;;4882222;29;20123;-66
2022/07/10 12:01:54;;;;;;;4.88;0.88;;;16.10;99.90;;;;;;4882425;29;20137;-67
2022/07/10 12:04:24;;;;;;;4.82;0.88;;;16.00;99.90;;;;;;4883450;29;20059;-70
2022/07/10 12:06:51;;;;;;;2.95;0.88;;;15.90;99.90;;;;;;4882203;29;20490;-69
2022/07/10 12:09:22;;;;;;;2.00;0.65;;;15.80;99.90;;;;;;4882406;29;20067;-69
2022/07/10 12:12:22;;;;;;;1.73;0.50;;;15.80;99.90;;;;;;4883355;29;20140;-69
2022/07/10 12:14:48;;;;;;;1.60;0.60;;;15.80;99.90;;;;;;4852488;29;20065;-68
2022/07/10 12:17:13;;;;;;;1.23;0.60;;;15.80;99.90;;;;;;4883213;29;20482;-68
2022/07/10 12:19:40;;;;;;;2.75;0.80;;;15.80;99.90;;;;;;4882641;29;20080;-67
2022/07/10 12:22:07;;;;;;;3.15;0.77;;;15.80;99.90;;;;;;4883068;29;20123;-70
2022/07/10 12:24:33;;;;;;;3.40;0.75;;;15.80;99.90;;;;;;4883143;29;20128;-69
2022/07/10 12:26:58;;;;;;;2.28;0.75;;;15.80;99.90;;;;;;4882639;29;20051;-69
2022/07/10 12:29:26;;;;;;;2.13;0.60;;;15.90;99.90;;;;;;4882171;29;20048;-69
2022/07/10 12:31:54;;;;;;;2.80;0.70;;;15.90;99.90;;;;;;4882657;29;20486;-68
2022/07/10 12:34:50;;;;;;;4.15;1.02;;;15.90;99.90;;;;;;4882439;29;20057;-70
2022/07/10 12:37:16;;;;;;;2.92;0.77;;;16.00;99.90;;;;;;4881633;29;20056;-68
2022/07/10 12:39:53;;;;;;;4.60;0.70;;;16.10;99.90;;;;;;4881124;29;20045;-69
2022/07/10 12:42:26;;;;;;;4.88;0.93;;;16.10;99.90;;;;;;4882100;29;20056;-68
2022/07/10 12:44:52;;;;;;;1.70;0.68;;;16.10;99.90;;;;;;4881327;29;20053;-68
2022/07/10 12:47:20;;;;;;;2.88;0.75;;;16.10;99.90;;;;;;4881925;29;20064;-68
2022/07/10 12:49:58;;;;;;;1.23;0.50;;;16.20;99.90;;;;;;4880921;29;20131;-67
2022/07/10 12:52:29;;;;;;;2.95;0.70;;;16.20;99.90;;;;;;4882714;29;20084;-79
2022/07/10 12:55:09;;;;;;;5.28;1.00;;;16.20;99.90;;;;;;4882224;29;20112;-67
2022/07/10 12:57:58;;;;;;;3.67;0.75;;;16.20;99.90;;;;;;4881755;29;20076;-68
2022/07/10 13:00:23;;;;;;;2.38;0.70;;;16.30;99.90;;;;;;4882640;29;20057;-67
2022/07/10 13:02:56;;;;;;;3.25;0.80;;;16.40;99.90;;;;;;4881861;29;20141;-67